Time;durP1;ratioP1;P1;durP2;ratioP2;P2;SDS_P1;SDS_P2;PMS_P1;PMS_P2;Temp;Humidity;BMP_temperature;BMP_pressure;BME280_temperature;BME280_humidity;BME280_pressure;Samples;Min_cycle;Max_cycle;Signal;HPM_P1;HPM_P2
2022/03/17 00:00:36;;;;;;;11.18;7.60;;;;;;;8.78;69.16;101939.34;2077054;28;20037;-82
2022/03/17 00:01:58;;;;;;;12.57;9.30;;;;;;;8.76;69.09;101941.91;2087276;28;20548;-82
2022/03/17 00:03:21;;;;;;;9.35;5.78;;;;;;;8.74;69.01;101943.56;2073925;28;20438;-82
2022/03/17 00:04:43;;;;;;;8.88;5.13;;;;;;;8.74;69.15;101943.56;2068857;28;20108;-82
2022/03/17 00:06:07;;;;;;;6.50;3.67;;;;;;;8.70;69.18;101940.75;2063018;28;20038;-82
2022/03/17 00:07:29;;;;;;;7.10;3.85;;;;;;;8.63;69.19;101941.31;2085483;28;20366;-83
2022/03/17 00:08:52;;;;;;;10.35;4.97;;;;;;;8.58;69.41;101940.25;2066705;28;20502;-83
2022/03/17 00:10:16;;;;;;;8.30;4.78;;;;;;;8.60;69.58;101941.22;2076915;28;20049;-83
2022/03/17 00:11:39;;;;;;;11.23;4.88;;;;;;;8.64;69.40;101927.34;2079539;28;20084;-83
2022/03/17 00:13:01;;;;;;;8.98;5.35;;;;;;;8.70;69.37;101931.13;2087413;28;20115;-83
2022/03/17 00:14:24;;;;;;;10.07;5.10;;;;;;;8.76;69.05;101934.00;2073619;28;20041;-83
2022/03/17 00:15:48;;;;;;;11.65;6.28;;;;;;;8.82;69.03;101935.09;2071198;28;20540;-83
2022/03/17 00:17:09;;;;;;;12.95;6.18;;;;;;;8.87;69.08;101934.44;2066183;28;20093;-83
2022/03/17 00:18:32;;;;;;;12.38;6.38;;;;;;;8.92;68.90;101937.28;2068384;28;20088;-83
2022/03/17 00:19:54;;;;;;;14.40;9.50;;;;;;;8.96;68.65;101934.84;2063194;28;20402;-83
2022/03/17 00:21:17;;;;;;;12.05;6.07;;;;;;;8.99;68.72;101940.19;2065095;28;20045;-83
2022/03/17 00:22:40;;;;;;;9.40;5.60;;;;;;;9.00;68.60;101943.75;2076976;28;20090;-83
2022/03/17 00:24:02;;;;;;;11.13;4.28;;;;;;;8.97;68.57;101943.63;2071314;28;20061;-83
2022/03/17 00:25:25;;;;;;;7.80;4.38;;;;;;;8.95;68.42;101937.38;2081556;28;20148;-83
2022/03/17 00:26:49;;;;;;;7.75;3.88;;;;;;;8.94;68.19;101938.22;2062888;28;20522;-84
2022/03/17 00:28:12;;;;;;;6.65;3.25;;;;;;;8.92;68.42;101932.03;2075211;28;20045;-83
2022/03/17 00:29:37;;;;;;;7.35;3.72;;;;;;;8.90;68.23;101933.69;2073581;28;20107;-83
2022/03/17 00:31:01;;;;;;;6.28;3.55;;;;;;;8.86;68.33;101934.41;2068912;28;20042;-83
2022/03/17 00:32:24;;;;;;;6.03;3.40;;;;;;;8.80;68.46;101935.00;2076243;28;20045;-83
2022/03/17 00:33:47;;;;;;;8.95;3.42;;;;;;;8.78;68.70;101936.72;2071169;28;20046;-83
2022/03/17 00:36:50;;;;;;;7.82;3.70;;;;;;;8.79;68.54;101925.34;2064629;28;20046;-83
2022/03/17 00:38:16;;;;;;;6.68;3.78;;;;;;;8.80;68.46;101930.66;2071046;28;20141;-83
2022/03/17 00:39:38;;;;;;;10.88;5.22;;;;;;;8.78;68.80;101921.81;2071028;28;20054;-83
2022/03/17 00:41:01;;;;;;;10.80;6.47;;;;;;;8.77;68.81;101916.47;2070651;28;20092;-83
2022/03/17 00:42:22;;;;;;;8.77;4.32;;;;;;;8.81;69.11;101915.75;2068824;28;20506;-84
2022/03/17 00:43:45;;;;;;;15.38;8.68;;;;;;;8.82;68.87;101919.28;2057507;28;20514;-83
2022/03/17 00:45:11;;;;;;;26.15;11.88;;;;;;;8.83;68.86;101910.56;2055917;28;20043;-83
2022/03/17 00:46:33;;;;;;;13.13;9.18;;;;;;;8.84;68.93;101913.28;2052973;28;20463;-83
2022/03/17 00:47:56;;;;;;;6.10;3.67;;;;;;;8.86;69.32;101906.31;2057567;28;20046;-84
2022/03/17 00:49:18;;;;;;;8.10;4.80;;;;;;;8.93;69.20;101904.81;2059154;28;20478;-83
2022/03/17 00:50:41;;;;;;;6.18;3.70;;;;;;;8.94;69.25;101904.00;2076319;28;20046;-83
2022/03/17 00:52:09;;;;;;;9.48;5.75;;;;;;;8.95;69.32;101903.16;2073639;28;20077;-83
2022/03/17 00:53:32;;;;;;;8.15;4.65;;;;;;;8.96;69.12;101895.31;2077906;28;20143;-83
2022/03/17 00:54:53;;;;;;;6.53;3.55;;;;;;;8.97;69.09;101893.59;2064266;28;20055;-83
2022/03/17 00:56:16;;;;;;;7.72;3.92;;;;;;;8.97;68.92;101896.22;2062440;28;20141;-83
2022/03/17 00:57:39;;;;;;;7.95;3.80;;;;;;;8.97;68.96;101901.50;2054838;28;20046;-83
2022/03/17 00:59:02;;;;;;;8.38;4.28;;;;;;;8.97;69.02;101897.13;2052670;28;20065;-83
2022/03/17 01:00:26;;;;;;;8.27;3.78;;;;;;;9.00;68.89;101893.69;2053959;28;20039;-83
2022/03/17 01:01:49;;;;;;;8.13;3.70;;;;;;;8.97;68.93;101893.59;2053514;28;20047;-83
2022/03/17 01:03:12;;;;;;;6.82;3.70;;;;;;;8.97;69.00;101901.50;2062629;28;20050;-83
2022/03/17 01:04:35;;;;;;;6.43;3.60;;;;;;;8.97;68.92;101897.13;2054946;28;20074;-83
2022/03/17 01:05:59;;;;;;;6.60;3.58;;;;;;;8.95;68.88;101897.88;2062987;28;20057;-83
2022/03/17 01:07:21;;;;;;;6.38;3.35;;;;;;;8.92;69.04;101897.78;2070937;28;20127;-83
2022/03/17 01:08:44;;;;;;;6.10;3.20;;;;;;;8.90;68.80;101894.19;2051204;28;20051;-83
2022/03/17 01:10:08;;;;;;;6.05;3.42;;;;;;;8.90;69.01;101894.19;2059198;28;20441;-83
2022/03/17 01:11:30;;;;;;;7.63;3.08;;;;;;;8.88;69.18;101896.75;2059395;28;20061;-83
2022/03/17 01:12:52;;;;;;;6.32;3.28;;;;;;;8.89;69.34;101888.00;2051983;28;20553;-83
2022/03/17 01:14:15;;;;;;;5.80;2.95;;;;;;;8.91;69.11;101890.72;2052037;28;20122;-83
2022/03/17 01:15:39;;;;;;;7.50;3.25;;;;;;;8.92;69.07;101892.53;2066736;28;20042;-83
2022/03/17 01:17:02;;;;;;;8.00;2.80;;;;;;;8.88;69.18;101894.13;2069546;28;20061;-83
2022/03/17 01:18:24;;;;;;;9.35;3.95;;;;;;;8.86;69.07;101892.28;2055700;28;20043;-83
2022/03/17 01:19:47;;;;;;;7.55;3.97;;;;;;;8.84;68.99;101893.94;2052184;28;20047;-83
2022/03/17 01:21:10;;;;;;;7.13;3.22;;;;;;;8.80;69.16;101890.25;2054847;28;20069;-83
2022/03/17 01:22:31;;;;;;;6.90;3.28;;;;;;;8.80;69.36;101885.91;2059590;28;20053;-82
2022/03/17 01:23:53;;;;;;;7.82;3.42;;;;;;;8.84;69.24;101894.84;2060090;28;20046;-83
2022/03/17 01:25:16;;;;;;;6.90;3.72;;;;;;;8.86;69.25;101894.91;2060087;28;20505;-83
2022/03/17 01:26:38;;;;;;;8.77;4.20;;;;;;;8.88;68.91;101899.38;2062451;28;20042;-82
2022/03/17 01:28:01;;;;;;;9.43;5.10;;;;;;;8.90;68.95;101900.34;2070264;28;20065;-84
2022/03/17 01:29:23;;;;;;;8.13;3.95;;;;;;;8.92;68.88;101900.41;2056711;28;20109;-83
2022/03/17 01:30:48;;;;;;;5.68;3.28;;;;;;;8.92;68.77;101895.16;2066886;28;20057;-82
2022/03/17 01:32:10;;;;;;;6.82;3.47;;;;;;;8.92;68.74;101890.78;2070339;28;20132;-83
2022/03/17 01:33:33;;;;;;;5.72;1.83;;;;;;;8.93;68.79;101894.28;2062255;28;20058;-83
2022/03/17 01:34:55;;;;;;;4.97;2.38;;;;;;;8.89;68.65;101892.38;2063881;28;20508;-83
2022/03/17 01:36:18;;;;;;;5.60;2.80;;;;;;;8.87;68.66;101891.41;2067359;28;20133;-82
2022/03/17 01:37:41;;;;;;;6.53;2.88;;;;;;;8.83;68.51;101897.41;2070421;28;20148;-82
2022/03/17 01:39:03;;;;;;;5.90;3.20;;;;;;;8.82;68.81;101892.97;2067001;28;20038;-83
2022/03/17 01:40:25;;;;;;;5.28;2.97;;;;;;;8.78;68.61;101899.84;2067923;28;20073;-83
2022/03/17 01:41:48;;;;;;;6.45;2.88;;;;;;;8.77;68.58;101904.22;2067969;28;20209;-82
2022/03/17 01:43:10;;;;;;;6.63;3.35;;;;;;;8.73;68.71;101904.91;2065881;28;20512;-83
2022/03/17 01:44:34;;;;;;;6.35;3.38;;;;;;;8.72;68.95;101905.78;2062258;28;20053;-82
2022/03/17 01:45:58;;;;;;;8.40;4.20;;;;;;;8.70;68.86;101907.44;2077296;28;20048;-82
2022/03/17 01:47:28;;;;;;;8.52;5.47;;;;;;;8.67;68.98;101902.03;2074033;28;20052;-82
2022/03/17 01:48:50;;;;;;;8.68;5.40;;;;;;;8.67;68.82;101907.28;2074464;28;20501;-81
2022/03/17 01:50:14;;;;;;;8.77;5.47;;;;;;;8.69;68.92;101896.84;2078200;28;20087;-82
2022/03/17 01:51:36;;;;;;;10.00;3.88;;;;;;;8.67;68.92;101899.38;2078327;28;20548;-82
2022/03/17 01:52:59;;;;;;;9.05;4.30;;;;;;;8.67;68.95;101898.50;2072872;28;20478;-82
2022/03/17 01:54:20;;;;;;;3.97;2.15;;;;;;;8.67;69.16;101896.75;2067425;28;20095;-82
2022/03/17 01:55:43;;;;;;;3.92;2.40;;;;;;;8.69;69.31;101900.38;2065071;28;20448;-81
2022/03/17 01:57:06;;;;;;;6.38;3.28;;;;;;;8.74;69.32;101898.81;2059536;28;20050;-82
2022/03/17 01:58:29;;;;;;;6.35;3.13;;;;;;;8.75;69.20;101899.72;2072031;28;20168;-82
2022/03/17 01:59:53;;;;;;;5.78;2.78;;;;;;;8.77;69.41;101892.78;2086626;28;20517;-82
2022/03/17 02:01:17;;;;;;;6.57;3.53;;;;;;;8.78;69.51;101894.59;2072591;28;20476;-85
2022/03/17 02:02:40;;;;;;;7.03;3.47;;;;;;;8.75;69.45;101892.72;2057305;28;20050;-84
2022/03/17 02:04:03;;;;;;;5.38;2.95;;;;;;;8.79;69.36;101899.03;2059775;28;20226;-83
2022/03/17 02:05:26;;;;;;;4.88;2.60;;;;;;;8.79;69.44;101893.75;2067900;28;20048;-84
2022/03/17 02:06:48;;;;;;;3.90;1.55;;;;;;;8.79;69.50;101891.13;2084609;28;20084;-84
2022/03/17 02:08:11;;;;;;;6.88;2.83;;;;;;;8.80;69.47;101895.53;2079515;28;20061;-83
2022/03/17 02:09:33;;;;;;;5.00;2.60;;;;;;;8.77;69.45;101888.44;2064871;28;20049;-83
2022/03/17 02:14:20;;;;;;;11.35;4.90;;;;;;;8.79;69.35;101892.00;2064898;28;20229;-84
2022/03/17 02:15:43;;;;;;;7.38;3.08;;;;;;;8.79;69.12;101886.72;2074082;28;20379;-84
2022/03/17 02:17:06;;;;;;;7.30;4.05;;;;;;;8.82;69.43;101892.97;2067780;28;20429;-83
2022/03/17 02:18:28;;;;;;;7.55;3.53;;;;;;;8.79;69.33;101889.38;2075293;28;20049;-83
2022/03/17 02:19:52;;;;;;;8.07;3.45;;;;;;;8.79;69.47;101888.50;2086493;28;20508;-84
2022/03/17 02:21:14;;;;;;;4.97;2.67;;;;;;;8.83;69.42;101886.88;2058861;28;20141;-84
2022/03/17 02:22:41;;;;;;;5.35;2.55;;;;;;;8.84;69.35;101884.31;2081052;28;20107;-83
2022/03/17 02:25:56;;;;;;;5.55;2.88;;;;;;;8.84;69.35;101886.03;2064189;28;20137;-83
2022/03/17 02:27:19;;;;;;;4.68;2.67;;;;;;;8.83;69.52;101890.41;2077539;28;20513;-83
2022/03/17 02:28:43;;;;;;;4.57;2.60;;;;;;;8.83;69.61;101886.88;2080889;28;20712;-82
2022/03/17 02:30:05;;;;;;;4.63;2.35;;;;;;;8.80;69.74;101892.91;2078345;28;20061;-83
2022/03/17 02:31:31;;;;;;;4.03;1.52;;;;;;;8.78;69.51;101900.75;2075076;28;20046;-82
2022/03/17 02:33:00;;;;;;;6.20;2.45;;;;;;;8.77;69.67;101890.16;2075312;28;20057;-82
2022/03/17 02:34:23;;;;;;;2.78;2.05;;;;;;;8.73;69.84;101897.00;2071037;28;20038;-82
2022/03/17 02:35:47;;;;;;;5.63;2.13;;;;;;;8.70;69.85;101901.25;2075860;28;20061;-82
2022/03/17 02:37:08;;;;;;;4.10;2.30;;;;;;;8.66;70.09;101894.09;2069935;28;20091;-82
2022/03/17 02:38:32;;;;;;;3.28;1.48;;;;;;;8.62;70.21;101903.56;2071738;28;20061;-82
2022/03/17 02:39:54;;;;;;;8.52;3.08;;;;;;;8.61;70.30;101907.03;2078130;28;20983;-82
2022/03/17 02:41:23;;;;;;;3.95;1.95;;;;;;;8.61;70.38;101906.13;2064487;28;20046;-82
2022/03/17 02:42:45;;;;;;;5.95;2.85;;;;;;;8.60;70.48;101907.00;2068873;28;20053;-81
2022/03/17 02:44:08;;;;;;;3.95;2.17;;;;;;;8.59;70.47;101910.47;2066211;28;20486;-83
2022/03/17 02:45:30;;;;;;;6.03;2.88;;;;;;;8.59;70.31;101915.72;2075963;28;20079;-83
2022/03/17 02:46:53;;;;;;;7.00;3.55;;;;;;;8.58;70.49;101908.66;2086294;28;20188;-83
2022/03/17 02:48:16;;;;;;;8.52;3.53;;;;;;;8.60;70.68;101907.88;2071937;28;20038;-83
2022/03/17 02:49:37;;;;;;;5.55;3.10;;;;;;;8.63;70.44;101905.38;2068549;28;20045;-82
2022/03/17 02:51:00;;;;;;;5.75;2.75;;;;;;;8.66;70.34;101904.63;2067231;28;20049;-82
2022/03/17 02:52:22;;;;;;;4.60;2.83;;;;;;;8.69;70.22;101916.16;2070177;28;20144;-83
2022/03/17 02:53:44;;;;;;;6.07;3.20;;;;;;;8.70;70.39;101906.53;2075301;28;20412;-82
2022/03/17 02:55:12;;;;;;;7.40;3.53;;;;;;;8.73;70.26;101910.16;2078215;28;20049;-83
2022/03/17 02:56:35;;;;;;;9.10;5.43;;;;;;;8.69;70.02;101910.00;2070250;28;20033;-83
2022/03/17 02:57:57;;;;;;;9.15;5.07;;;;;;;8.59;69.91;101907.81;2067426;28;20088;-83
2022/03/17 02:59:18;;;;;;;8.10;5.30;;;;;;;8.52;70.08;101905.78;2069341;28;20050;-84
2022/03/17 03:00:42;;;;;;;8.30;3.60;;;;;;;8.53;70.22;101912.84;2062725;28;20138;-82
2022/03/17 03:02:04;;;;;;;7.88;4.10;;;;;;;8.55;70.16;101914.69;2073598;28;20053;-83
2022/03/17 03:03:27;;;;;;;7.85;4.30;;;;;;;8.60;70.16;101912.25;2064384;28;20133;-83
2022/03/17 03:04:49;;;;;;;8.75;3.60;;;;;;;8.63;70.13;101908.00;2067731;28;20557;-84
2022/03/17 03:06:11;;;;;;;8.57;3.33;;;;;;;8.65;69.95;101919.50;2070021;28;20054;-84
2022/03/17 03:07:34;;;;;;;9.95;3.10;;;;;;;8.64;70.00;101909.81;2072201;28;20042;-84
2022/03/17 03:08:58;;;;;;;9.77;3.50;;;;;;;8.65;69.73;101905.44;2070018;28;20091;-84
2022/03/17 03:10:23;;;;;;;7.18;3.47;;;;;;;8.66;69.86;101915.16;2061909;28;20042;-84
2022/03/17 03:11:44;;;;;;;6.43;4.07;;;;;;;8.65;69.98;101911.63;2067969;28;20050;-83
2022/03/17 03:13:06;;;;;;;6.75;2.92;;;;;;;8.64;69.74;101916.81;2076705;28;20047;-82
2022/03/17 03:14:29;;;;;;;8.52;3.92;;;;;;;8.63;69.44;101917.63;2065925;28;20050;-83
2022/03/17 03:15:52;;;;;;;4.65;2.55;;;;;;;8.60;69.89;101907.00;2062159;28;20068;-83
2022/03/17 03:17:13;;;;;;;5.15;2.40;;;;;;;8.59;69.64;101919.25;2068578;28;20042;-83
2022/03/17 03:18:36;;;;;;;8.55;3.20;;;;;;;8.56;69.63;101915.56;2061494;28;20064;-83
2022/03/17 03:19:59;;;;;;;9.50;3.28;;;;;;;8.52;69.89;101919.84;2075275;28;20045;-83
2022/03/17 03:21:21;;;;;;;8.68;3.75;;;;;;;8.50;69.88;101910.06;2061586;28;20522;-83
2022/03/17 03:22:43;;;;;;;6.38;2.67;;;;;;;8.50;69.85;101918.84;2072772;28;20053;-83
2022/03/17 03:24:05;;;;;;;6.05;2.90;;;;;;;8.49;69.78;101908.25;2068626;28;20410;-83
2022/03/17 03:25:29;;;;;;;7.18;3.40;;;;;;;8.49;69.91;101921.41;2069796;28;20129;-82
2022/03/17 03:26:51;;;;;;;5.53;2.70;;;;;;;8.46;70.04;101916.94;2069569;28;20069;-82
2022/03/17 03:28:14;;;;;;;6.03;2.92;;;;;;;8.46;70.22;101919.56;2075390;28;20132;-83
2022/03/17 03:29:36;;;;;;;9.77;3.00;;;;;;;8.46;70.13;101922.19;2072428;28;20060;-82
2022/03/17 03:30:59;;;;;;;8.32;3.13;;;;;;;8.47;70.11;101920.47;2067148;28;20104;-82
2022/03/17 03:32:22;;;;;;;6.00;2.85;;;;;;;8.44;70.28;101923.84;2075371;28;20053;-82
2022/03/17 03:33:45;;;;;;;5.85;3.15;;;;;;;8.42;70.38;101919.34;2086214;28;20296;-84
2022/03/17 03:38:24;;;;;;;6.90;4.25;;;;;;;8.36;70.22;101920.00;2082064;28;20076;-84
2022/03/17 03:39:46;;;;;;;10.65;7.10;;;;;;;8.32;70.48;101926.88;2066117;28;20158;-83
2022/03/17 03:41:10;;;;;;;9.13;4.43;;;;;;;8.34;70.61;101929.53;2060739;28;20152;-84
2022/03/17 03:42:33;;;;;;;7.22;3.45;;;;;;;8.33;70.45;101928.66;2068984;28;20088;-83
2022/03/17 03:43:55;;;;;;;6.80;4.13;;;;;;;8.34;70.61;101921.66;2063403;28;20098;-82
2022/03/17 03:45:18;;;;;;;6.85;3.33;;;;;;;8.37;70.39;101919.16;2073115;28;20423;-83
2022/03/17 03:46:41;;;;;;;7.68;4.70;;;;;;;8.39;70.39;101912.25;2073675;28;20133;-83
2022/03/17 03:48:04;;;;;;;6.28;3.40;;;;;;;8.45;70.36;101919.50;2075495;28;20057;-84
2022/03/17 03:49:27;;;;;;;6.47;3.65;;;;;;;8.45;70.71;101915.13;2065064;28;20531;-84
2022/03/17 03:50:49;;;;;;;8.98;3.58;;;;;;;8.47;70.74;101913.44;2076266;28;20056;-84
2022/03/17 03:52:13;;;;;;;9.70;3.95;;;;;;;8.51;70.72;101909.22;2077917;28;20049;-84
2022/03/17 03:55:12;;;;;;;8.07;3.90;;;;;;;8.57;70.84;101905.13;2072236;28;20500;-83
2022/03/17 03:56:35;;;;;;;8.23;3.72;;;;;;;8.60;70.82;101907.00;2065121;28;20486;-84
2022/03/17 03:57:58;;;;;;;7.10;3.83;;;;;;;8.61;70.81;101907.03;2060014;28;20054;-83
2022/03/17 03:59:21;;;;;;;6.40;2.97;;;;;;;8.62;70.78;101905.31;2060039;28;20058;-83
2022/03/17 04:00:44;;;;;;;6.18;3.33;;;;;;;8.60;70.58;101899.09;2076986;28;20117;-83
2022/03/17 04:02:07;;;;;;;11.95;8.48;;;;;;;8.52;70.60;101905.78;2081987;28;20610;-83
2022/03/17 04:03:29;;;;;;;10.05;6.47;;;;;;;8.43;70.71;101906.28;2079133;28;20045;-83
2022/03/17 04:04:52;;;;;;;10.43;5.07;;;;;;;8.37;70.98;101896.38;2087701;28;20120;-83
2022/03/17 04:06:15;;;;;;;9.73;4.07;;;;;;;8.38;71.10;101897.28;2072029;28;20057;-83
2022/03/17 04:07:38;;;;;;;7.30;4.38;;;;;;;8.40;70.94;101900.91;2087850;28;20107;-83
2022/03/17 04:09:00;;;;;;;7.15;3.88;;;;;;;8.41;71.08;101889.50;2073769;28;20105;-83
2022/03/17 04:10:23;;;;;;;6.32;3.17;;;;;;;8.43;71.06;101890.47;2078797;28;20049;-84
2022/03/17 04:11:48;;;;;;;6.30;3.53;;;;;;;8.49;71.30;101890.75;2070338;28;20149;-84
2022/03/17 04:13:10;;;;;;;7.53;2.90;;;;;;;8.50;70.99;101892.53;2062197;28;20039;-83
2022/03/17 04:14:34;;;;;;;7.65;3.70;;;;;;;8.54;71.13;101885.66;2076659;28;20049;-83
2022/03/17 04:15:57;;;;;;;9.48;3.40;;;;;;;8.59;71.17;101881.50;2065795;28;20046;-83
2022/03/17 04:17:19;;;;;;;9.57;3.20;;;;;;;8.60;71.09;101886.81;2064494;28;20046;-83
2022/03/17 04:18:42;;;;;;;11.50;4.95;;;;;;;8.63;70.98;101889.59;2085141;28;20103;-83
2022/03/17 04:20:06;;;;;;;19.67;7.30;;;;;;;8.63;71.09;101889.59;2073679;28;20137;-83
2022/03/17 04:21:28;;;;;;;11.50;5.20;;;;;;;8.64;71.32;101894.03;2076501;28;20037;-83
2022/03/17 04:22:51;;;;;;;26.35;9.88;;;;;;;8.68;71.48;101895.03;2079001;28;20077;-84
2022/03/17 04:24:12;;;;;;;14.02;5.65;;;;;;;8.69;71.31;101897.72;2075614;28;20081;-84
2022/03/17 04:25:36;;;;;;;7.70;3.80;;;;;;;8.71;71.37;101903.06;2069258;28;20104;-83
2022/03/17 04:27:01;;;;;;;7.80;3.55;;;;;;;8.73;71.60;101901.38;2071273;28;20050;-84
2022/03/17 04:28:22;;;;;;;7.88;3.50;;;;;;;8.74;71.38;101906.72;2085003;28;20465;-83
2022/03/17 04:29:44;;;;;;;10.48;5.43;;;;;;;8.76;71.24;101906.78;2073732;28;20046;-83
2022/03/17 04:31:06;;;;;;;11.70;4.68;;;;;;;8.76;71.38;101905.06;2076488;28;20053;-83
2022/03/17 04:32:28;;;;;;;8.57;4.88;;;;;;;8.81;71.07;101910.50;2079194;28;20394;-84
2022/03/17 04:33:51;;;;;;;6.55;3.20;;;;;;;8.85;71.30;101907.16;2070540;28;20609;-84
2022/03/17 04:35:14;;;;;;;8.57;3.58;;;;;;;8.88;71.08;101914.28;2068325;28;20113;-83
2022/03/17 04:36:37;;;;;;;6.55;4.30;;;;;;;8.92;71.18;101917.13;2068938;28;20129;-83
2022/03/17 04:38:00;;;;;;;11.32;4.90;;;;;;;8.98;71.27;101921.72;2085041;28;20052;-84
2022/03/17 04:39:22;;;;;;;5.80;2.67;;;;;;;9.03;71.36;101917.53;2074418;28;20088;-84
2022/03/17 04:40:49;;;;;;;4.68;2.28;;;;;;;9.09;71.31;101915.16;2071818;28;20065;-84
2022/03/17 04:42:13;;;;;;;6.85;2.90;;;;;;;9.15;71.28;101921.56;2077966;28;20053;-84
2022/03/17 04:43:36;;;;;;;7.93;3.25;;;;;;;9.20;71.08;101921.72;2079234;28;20046;-83
2022/03/17 04:44:58;;;;;;;5.82;3.20;;;;;;;9.28;71.18;101927.31;2070930;28;20042;-84
2022/03/17 04:46:21;;;;;;;7.85;2.88;;;;;;;9.34;70.94;101924.91;2078288;28;20079;-84
2022/03/17 04:47:44;;;;;;;4.82;2.38;;;;;;;9.38;70.98;101932.13;2062880;28;20034;-84
2022/03/17 04:49:07;;;;;;;5.75;3.35;;;;;;;9.41;70.90;101934.84;2060745;28;20038;-83
2022/03/17 04:50:28;;;;;;;5.80;3.28;;;;;;;9.46;70.94;101935.94;2066052;28;20054;-84
2022/03/17 04:51:51;;;;;;;8.80;4.72;;;;;;;9.50;70.99;101937.88;2076423;28;20049;-84
2022/03/17 04:53:27;;;;;;;9.07;4.70;;;;;;;9.56;70.95;101927.56;2068632;28;20133;-83
2022/03/17 04:54:49;;;;;;;5.40;3.17;;;;;;;9.60;70.90;101930.34;2080470;28;20087;-84
2022/03/17 04:56:14;;;;;;;9.32;2.88;;;;;;;9.63;70.83;101931.31;2070816;28;20049;-84
2022/03/17 04:57:38;;;;;;;6.72;3.45;;;;;;;9.64;70.73;101925.22;2076905;28;20524;-84
2022/03/17 04:59:01;;;;;;;7.75;3.33;;;;;;;9.66;70.77;101926.16;2069447;28;20057;-84
2022/03/17 05:00:22;;;;;;;6.30;3.10;;;;;;;9.68;71.00;101925.38;2063104;28;20314;-84
2022/03/17 05:01:45;;;;;;;7.75;3.28;;;;;;;9.71;70.97;101928.16;2065017;28;20636;-83
2022/03/17 05:03:06;;;;;;;6.60;3.08;;;;;;;9.75;70.83;101926.50;2068247;28;20074;-84
2022/03/17 05:04:29;;;;;;;9.23;2.78;;;;;;;9.82;70.92;101924.16;2067762;28;20100;-84
2022/03/17 05:05:52;;;;;;;6.05;2.45;;;;;;;9.87;70.63;101921.69;2062653;28;20486;-84
2022/03/17 05:07:13;;;;;;;6.22;3.00;;;;;;;9.95;70.59;101921.13;2067882;28;20516;-83
2022/03/17 05:08:36;;;;;;;5.40;2.97;;;;;;;10.04;70.80;101925.88;2071014;28;20393;-83
2022/03/17 05:09:59;;;;;;;6.20;3.42;;;;;;;10.12;70.69;101918.19;2070654;28;20133;-84
2022/03/17 05:11:22;;;;;;;7.63;3.50;;;;;;;10.22;70.65;101926.56;2084696;28;20072;-84
2022/03/17 05:12:45;;;;;;;6.03;2.80;;;;;;;10.34;70.70;101920.81;2072940;28;20058;-83
2022/03/17 05:14:07;;;;;;;6.65;2.78;;;;;;;10.43;70.59;101922.88;2075888;28;20121;-84
2022/03/17 05:15:29;;;;;;;4.85;2.83;;;;;;;10.46;70.59;101921.22;2077228;28;20042;-84
2022/03/17 05:16:51;;;;;;;5.90;2.88;;;;;;;10.51;70.35;101924.00;2062728;28;20072;-84
2022/03/17 05:18:13;;;;;;;6.35;2.90;;;;;;;10.55;70.19;101924.19;2075852;28;20128;-84
2022/03/17 05:19:36;;;;;;;14.30;6.63;;;;;;;10.58;70.22;101916.34;2070407;28;20037;-84
2022/03/17 05:20:58;;;;;;;11.55;5.40;;;;;;;10.62;70.34;101909.44;2054817;28;20050;-84
2022/03/17 05:22:21;;;;;;;12.63;7.22;;;;;;;10.68;70.22;101914.94;2082028;28;20068;-84
2022/03/17 05:23:44;;;;;;;14.82;7.80;;;;;;;10.72;70.20;101915.09;2078664;28;20053;-83
2022/03/17 05:25:06;;;;;;;12.85;7.32;;;;;;;10.80;70.04;101917.97;2072817;28;20053;-84
2022/03/17 05:26:29;;;;;;;13.00;8.60;;;;;;;10.84;70.08;101919.88;2062862;28;20054;-83
2022/03/17 05:27:52;;;;;;;15.48;8.95;;;;;;;10.86;70.19;101925.22;2073097;28;20091;-84
2022/03/17 05:29:14;;;;;;;11.80;7.05;;;;;;;10.82;70.09;101912.75;2070774;28;20050;-84
2022/03/17 05:30:38;;;;;;;13.23;7.55;;;;;;;10.78;70.34;101920.56;2067416;28;20360;-83
2022/03/17 05:32:01;;;;;;;15.20;8.00;;;;;;;10.69;70.18;101914.09;2065554;28;20113;-84
2022/03/17 05:33:23;;;;;;;12.35;6.50;;;;;;;10.61;70.37;101911.19;2060149;28;20053;-85
2022/03/17 05:34:45;;;;;;;18.00;11.20;;;;;;;10.60;70.50;101919.97;2060035;28;20050;-84
2022/03/17 05:36:08;;;;;;;17.63;10.95;;;;;;;10.60;70.80;101908.50;2057502;28;20042;-84
2022/03/17 05:37:29;;;;;;;17.77;10.13;;;;;;;10.64;70.78;101908.63;2062005;28;20054;-84
2022/03/17 05:38:52;;;;;;;17.33;9.65;;;;;;;10.69;70.75;101914.09;2068146;28;20045;-84
2022/03/17 05:40:17;;;;;;;21.95;12.13;;;;;;;10.75;70.64;101916.94;2067632;28;20129;-84
2022/03/17 05:41:40;;;;;;;18.80;12.40;;;;;;;10.87;70.69;101921.72;2073947;28;20038;-84
2022/03/17 05:43:07;;;;;;;24.95;14.77;;;;;;;11.00;70.40;101918.63;2073546;28;20069;-84
2022/03/17 05:44:28;;;;;;;26.02;15.40;;;;;;;11.09;70.22;101919.81;2072836;28;20049;-84
2022/03/17 05:45:51;;;;;;;27.02;16.30;;;;;;;11.22;70.17;101915.84;2075815;28;20091;-83
2022/03/17 05:47:12;;;;;;;26.85;16.58;;;;;;;11.35;69.98;101919.75;2086834;28;20090;-84
2022/03/17 05:48:35;;;;;;;23.17;13.45;;;;;;;11.48;69.87;101917.53;2081169;28;20057;-84
2022/03/17 05:49:58;;;;;;;18.75;12.05;;;;;;;11.61;69.72;101921.47;2067495;28;20050;-84
2022/03/17 05:51:21;;;;;;;21.02;10.88;;;;;;;11.68;69.37;101912.84;2068143;28;20054;-84
2022/03/17 05:52:43;;;;;;;17.95;9.20;;;;;;;11.70;69.55;101916.41;2071960;28;20552;-83
2022/03/17 05:54:06;;;;;;;11.48;5.70;;;;;;;11.69;69.58;101919.91;2070155;28;20670;-84
2022/03/17 05:55:28;;;;;;;14.10;6.00;;;;;;;11.58;69.58;101911.66;2078784;28;20045;-84
2022/03/17 05:56:51;;;;;;;15.82;8.48;;;;;;;11.50;69.93;101915.81;2086656;28;20052;-84
2022/03/17 05:58:15;;;;;;;15.38;7.03;;;;;;;11.51;70.18;101909.69;2082115;28;20179;-80
2022/03/17 05:59:39;;;;;;;13.20;7.47;;;;;;;11.59;70.02;101909.91;2079676;28;20486;-79
2022/03/17 06:01:02;;;;;;;21.83;10.50;;;;;;;11.67;69.80;101905.75;2065955;28;20038;-78
2022/03/17 06:02:24;;;;;;;23.63;10.27;;;;;;;11.77;69.68;101905.19;2070721;28;20152;-84
2022/03/17 06:03:46;;;;;;;25.48;10.50;;;;;;;11.88;69.44;101902.88;2067418;28;20050;-84
2022/03/17 06:05:09;;;;;;;26.70;11.35;;;;;;;12.02;69.39;101908.53;2076071;28;20088;-84
2022/03/17 06:06:31;;;;;;;27.67;12.35;;;;;;;12.17;69.20;101906.31;2078826;28;20132;-84
2022/03/17 06:07:55;;;;;;;28.98;14.77;;;;;;;12.30;69.09;101913.75;2067184;28;20034;-84
2022/03/17 06:09:18;;;;;;;32.45;14.52;;;;;;;12.44;68.99;101915.00;2068254;28;20042;-84
2022/03/17 06:10:40;;;;;;;29.05;15.23;;;;;;;12.58;68.81;101918.03;2072787;28;20189;-84
2022/03/17 06:12:02;;;;;;;29.42;15.25;;;;;;;12.71;68.50;101921.03;2069876;28;20045;-84
2022/03/17 06:13:29;;;;;;;28.23;14.98;;;;;;;12.78;68.55;101917.69;2062177;28;20211;-83
2022/03/17 06:14:50;;;;;;;30.17;16.30;;;;;;;12.78;68.63;101922.97;2075511;28;20448;-84
2022/03/17 06:16:13;;;;;;;31.70;15.25;;;;;;;12.76;68.70;101924.69;2078316;28;20080;-84
2022/03/17 06:17:43;;;;;;;22.48;11.63;;;;;;;12.83;68.81;101925.75;2067562;28;20034;-84
2022/03/17 06:19:05;;;;;;;16.42;8.90;;;;;;;12.94;68.78;101923.34;2069697;28;20054;-84
2022/03/17 06:20:29;;;;;;;12.57;7.88;;;;;;;13.20;68.71;101921.34;2070336;28;20049;-84
2022/03/17 06:21:52;;;;;;;19.80;9.85;;;;;;;13.45;68.49;101921.97;2062168;28;20065;-84
2022/03/17 06:23:14;;;;;;;14.30;8.15;;;;;;;13.78;68.40;101926.22;2059425;28;20089;-84
2022/03/17 06:24:37;;;;;;;14.20;8.73;;;;;;;14.13;68.16;101927.81;2066418;28;20293;-84
2022/03/17 06:25:59;;;;;;;14.65;8.65;;;;;;;14.47;67.70;101923.19;2063858;28;20038;-84
2022/03/17 06:27:21;;;;;;;16.30;11.50;;;;;;;14.67;67.38;101921.78;2069244;28;20077;-84
2022/03/17 06:28:45;;;;;;;12.90;8.18;;;;;;;14.72;67.12;101930.72;2067482;28;20041;-84
2022/03/17 06:30:09;;;;;;;15.80;10.13;;;;;;;14.78;66.91;101930.81;2061286;28;20149;-84
2022/03/17 06:31:32;;;;;;;16.13;10.15;;;;;;;15.03;66.55;101932.16;2068074;28;20076;-84
2022/03/17 06:32:55;;;;;;;17.60;12.18;;;;;;;15.31;65.76;101933.47;2066256;28;20152;-85
2022/03/17 06:34:18;;;;;;;19.33;12.00;;;;;;;15.44;64.74;101940.75;2084134;28;20052;-84
2022/03/17 06:35:41;;;;;;;22.48;14.63;;;;;;;15.46;64.07;101934.59;2080553;28;20052;-83
2022/03/17 06:37:04;;;;;;;19.02;11.18;;;;;;;15.41;63.81;101936.31;2078209;28;20037;-84
2022/03/17 06:38:27;;;;;;;13.70;8.82;;;;;;;15.30;63.39;101939.66;2069439;28;20412;-83